sensor_id;sensor_type;location;lat;lon;timestamp;pressure;altitude;pressure_sealevel;temperature
70533;BMP180;58088;51.186;17.130;2023-04-24T00:00:57;99280.80;;;16.50
70533;BMP180;58088;51.186;17.130;2023-04-24T00:03:25;99277.20;;;16.60
70533;BMP180;58088;51.186;17.130;2023-04-24T00:05:56;99276.00;;;16.60
70533;BMP180;58088;51.186;17.130;2023-04-24T00:08:22;99270.60;;;16.60
70533;BMP180;58088;51.186;17.130;2023-04-24T00:10:49;99265.80;;;16.60
70533;BMP180;58088;51.186;17.130;2023-04-24T00:13:16;99271.00;;;16.60
70533;BMP180;58088;51.186;17.130;2023-04-24T00:15:42;99268.60;;;16.60
70533;BMP180;58088;51.186;17.130;2023-04-24T00:18:08;99264.40;;;16.60
70533;BMP180;58088;51.186;17.130;2023-04-24T00:20:34;99261.20;;;16.50
70533;BMP180;58088;51.186;17.130;2023-04-24T00:23:01;99252.60;;;16.50
70533;BMP180;58088;51.186;17.130;2023-04-24T00:25:27;99253.60;;;16.50
70533;BMP180;58088;51.186;17.130;2023-04-24T00:27:56;99250.80;;;16.50
70533;BMP180;58088;51.186;17.130;2023-04-24T00:30:22;99248.20;;;16.50
70533;BMP180;58088;51.186;17.130;2023-04-24T00:32:49;99244.40;;;16.50
70533;BMP180;58088;51.186;17.130;2023-04-24T00:35:15;99245.40;;;16.40
70533;BMP180;58088;51.186;17.130;2023-04-24T00:37:42;99243.80;;;16.40
70533;BMP180;58088;51.186;17.130;2023-04-24T00:40:10;99239.60;;;16.50
70533;BMP180;58088;51.186;17.130;2023-04-24T00:42:36;99235.00;;;16.50
70533;BMP180;58088;51.186;17.130;2023-04-24T00:45:04;99228.60;;;16.50
70533;BMP180;58088;51.186;17.130;2023-04-24T00:47:33;99226.40;;;16.50
70533;BMP180;58088;51.186;17.130;2023-04-24T00:50:05;99228.00;;;16.50
70533;BMP180;58088;51.186;17.130;2023-04-24T00:52:32;99225.80;;;16.50
70533;BMP180;58088;51.186;17.130;2023-04-24T00:54:58;99235.00;;;16.60
70533;BMP180;58088;51.186;17.130;2023-04-24T00:57:25;99228.20;;;16.60
70533;BMP180;58088;51.186;17.130;2023-04-24T00:59:52;99238.40;;;16.60
70533;BMP180;58088;51.186;17.130;2023-04-24T01:02:21;99229.20;;;16.60
70533;BMP180;58088;51.186;17.130;2023-04-24T01:04:50;99224.80;;;16.50
70533;BMP180;58088;51.186;17.130;2023-04-24T01:07:20;99222.60;;;16.60
70533;BMP180;58088;51.186;17.130;2023-04-24T01:09:48;99226.40;;;16.60
70533;BMP180;58088;51.186;17.130;2023-04-24T01:12:15;99224.60;;;16.60
70533;BMP180;58088;51.186;17.130;2023-04-24T01:14:44;99222.80;;;16.50
70533;BMP180;58088;51.186;17.130;2023-04-24T01:17:10;99219.40;;;16.50
70533;BMP180;58088;51.186;17.130;2023-04-24T01:19:38;99215.20;;;16.50
70533;BMP180;58088;51.186;17.130;2023-04-24T01:22:11;99218.40;;;16.50
70533;BMP180;58088;51.186;17.130;2023-04-24T01:24:38;99215.00;;;16.50
70533;BMP180;58088;51.186;17.130;2023-04-24T01:27:04;99214.00;;;16.50
70533;BMP180;58088;51.186;17.130;2023-04-24T01:29:31;99214.40;;;16.50
70533;BMP180;58088;51.186;17.130;2023-04-24T01:31:58;99215.00;;;16.50
70533;BMP180;58088;51.186;17.130;2023-04-24T01:34:25;99210.20;;;16.50
70533;BMP180;58088;51.186;17.130;2023-04-24T01:36:51;99209.80;;;16.46
70533;BMP180;58088;51.186;17.130;2023-04-24T01:39:17;99207.20;;;16.48
70533;BMP180;58088;51.186;17.130;2023-04-24T01:41:44;99199.60;;;16.50
70533;BMP180;58088;51.186;17.130;2023-04-24T01:44:11;99203.40;;;16.50
70533;BMP180;58088;51.186;17.130;2023-04-24T01:46:38;99201.80;;;16.50
70533;BMP180;58088;51.186;17.130;2023-04-24T01:49:04;99200.60;;;16.50
70533;BMP180;58088;51.186;17.130;2023-04-24T01:51:30;99194.00;;;16.40
70533;BMP180;58088;51.186;17.130;2023-04-24T01:53:57;99196.80;;;16.40
70533;BMP180;58088;51.186;17.130;2023-04-24T01:56:25;99196.40;;;16.40
70533;BMP180;58088;51.186;17.130;2023-04-24T01:58:53;99201.20;;;16.40
70533;BMP180;58088;51.186;17.130;2023-04-24T02:01:20;99196.80;;;16.40
70533;BMP180;58088;51.186;17.130;2023-04-24T02:04:07;99197.00;;;16.38
70533;BMP180;58088;51.186;17.130;2023-04-24T02:06:35;99197.40;;;16.30
70533;BMP180;58088;51.186;17.130;2023-04-24T02:09:02;99193.40;;;16.30
70533;BMP180;58088;51.186;17.130;2023-04-24T02:11:29;99196.40;;;16.30
70533;BMP180;58088;51.186;17.130;2023-04-24T02:13:55;99194.80;;;16.30
70533;BMP180;58088;51.186;17.130;2023-04-24T02:16:21;99193.40;;;16.40
70533;BMP180;58088;51.186;17.130;2023-04-24T02:18:57;99188.20;;;16.40
70533;BMP180;58088;51.186;17.130;2023-04-24T02:21:24;99185.80;;;16.40
70533;BMP180;58088;51.186;17.130;2023-04-24T02:23:50;99185.80;;;16.40
70533;BMP180;58088;51.186;17.130;2023-04-24T02:26:16;99184.80;;;16.30
70533;BMP180;58088;51.186;17.130;2023-04-24T02:28:43;99182.60;;;16.30
70533;BMP180;58088;51.186;17.130;2023-04-24T02:31:10;99176.20;;;16.30
70533;BMP180;58088;51.186;17.130;2023-04-24T02:33:36;99177.80;;;16.30
70533;BMP180;58088;51.186;17.130;2023-04-24T02:36:02;99173.20;;;16.30
70533;BMP180;58088;51.186;17.130;2023-04-24T02:38:29;99171.60;;;16.20
70533;BMP180;58088;51.186;17.130;2023-04-24T02:40:55;99166.40;;;16.20
70533;BMP180;58088;51.186;17.130;2023-04-24T02:43:21;99160.00;;;16.20
70533;BMP180;58088;51.186;17.130;2023-04-24T02:45:48;99157.80;;;16.20
70533;BMP180;58088;51.186;17.130;2023-04-24T02:48:14;99157.40;;;16.10
70533;BMP180;58088;51.186;17.130;2023-04-24T02:50:41;99152.60;;;16.10
70533;BMP180;58088;51.186;17.130;2023-04-24T02:53:07;99152.40;;;16.10
70533;BMP180;58088;51.186;17.130;2023-04-24T02:55:33;99154.00;;;16.02
70533;BMP180;58088;51.186;17.130;2023-04-24T02:57:59;99143.40;;;16.00
70533;BMP180;58088;51.186;17.130;2023-04-24T03:00:25;99142.20;;;16.00
70533;BMP180;58088;51.186;17.130;2023-04-24T03:02:51;99144.20;;;16.00
70533;BMP180;58088;51.186;17.130;2023-04-24T03:05:18;99130.60;;;16.00
70533;BMP180;58088;51.186;17.130;2023-04-24T03:07:45;99142.00;;;16.10
70533;BMP180;58088;51.186;17.130;2023-04-24T03:10:12;99137.20;;;16.00
70533;BMP180;58088;51.186;17.130;2023-04-24T03:12:38;99135.40;;;16.00
70533;BMP180;58088;51.186;17.130;2023-04-24T03:15:05;99135.40;;;16.00
70533;BMP180;58088;51.186;17.130;2023-04-24T03:17:31;99131.60;;;16.00
70533;BMP180;58088;51.186;17.130;2023-04-24T03:19:57;99128.60;;;16.00
70533;BMP180;58088;51.186;17.130;2023-04-24T03:22:24;99125.20;;;16.00
70533;BMP180;58088;51.186;17.130;2023-04-24T03:24:50;99132.00;;;16.00
70533;BMP180;58088;51.186;17.130;2023-04-24T03:27:17;99130.40;;;16.00
70533;BMP180;58088;51.186;17.130;2023-04-24T03:29:50;99130.60;;;15.94
70533;BMP180;58088;51.186;17.130;2023-04-24T03:32:24;99134.20;;;15.90
70533;BMP180;58088;51.186;17.130;2023-04-24T03:34:51;99136.40;;;15.90
70533;BMP180;58088;51.186;17.130;2023-04-24T03:37:18;99134.20;;;15.90
70533;BMP180;58088;51.186;17.130;2023-04-24T03:39:49;99134.80;;;15.90
70533;BMP180;58088;51.186;17.130;2023-04-24T03:42:17;99140.40;;;15.88
70533;BMP180;58088;51.186;17.130;2023-04-24T03:44:51;99146.00;;;15.90
70533;BMP180;58088;51.186;17.130;2023-04-24T03:47:17;99140.80;;;15.82
70533;BMP180;58088;51.186;17.130;2023-04-24T03:49:44;99142.00;;;15.80
70533;BMP180;58088;51.186;17.130;2023-04-24T03:52:16;99148.80;;;15.78
70533;BMP180;58088;51.186;17.130;2023-04-24T03:54:43;99150.40;;;15.70
70533;BMP180;58088;51.186;17.130;2023-04-24T03:57:10;99148.40;;;15.70
70533;BMP180;58088;51.186;17.130;2023-04-24T03:59:38;99148.40;;;15.70
70533;BMP180;58088;51.186;17.130;2023-04-24T04:02:09;99149.00;;;15.74
70533;BMP180;58088;51.186;17.130;2023-04-24T04:04:36;99147.80;;;15.80
70533;BMP180;58088;51.186;17.130;2023-04-24T04:07:02;99150.40;;;15.70
70533;BMP180;58088;51.186;17.130;2023-04-24T04:09:30;99155.00;;;15.70
70533;BMP180;58088;51.186;17.130;2023-04-24T04:11:56;99152.40;;;15.70
70533;BMP180;58088;51.186;17.130;2023-04-24T04:14:22;99156.20;;;15.70
70533;BMP180;58088;51.186;17.130;2023-04-24T04:16:49;99156.00;;;15.70
70533;BMP180;58088;51.186;17.130;2023-04-24T04:19:15;99151.00;;;15.70
70533;BMP180;58088;51.186;17.130;2023-04-24T04:21:41;99148.60;;;15.70
70533;BMP180;58088;51.186;17.130;2023-04-24T04:24:17;99144.80;;;15.70
70533;BMP180;58088;51.186;17.130;2023-04-24T04:26:45;99145.00;;;15.70
70533;BMP180;58088;51.186;17.130;2023-04-24T04:29:18;99146.20;;;15.70
70533;BMP180;58088;51.186;17.130;2023-04-24T04:31:45;99145.80;;;15.70
70533;BMP180;58088;51.186;17.130;2023-04-24T04:34:12;99142.20;;;15.80
70533;BMP180;58088;51.186;17.130;2023-04-24T04:36:41;99147.20;;;15.80
70533;BMP180;58088;51.186;17.130;2023-04-24T04:39:26;99143.20;;;15.90
70533;BMP180;58088;51.186;17.130;2023-04-24T04:42:16;99139.20;;;16.00
70533;BMP180;58088;51.186;17.130;2023-04-24T04:44:43;99137.60;;;16.30
70533;BMP180;58088;51.186;17.130;2023-04-24T04:47:14;99138.40;;;16.70
70533;BMP180;58088;51.186;17.130;2023-04-24T04:49:42;99144.00;;;17.22
70533;BMP180;58088;51.186;17.130;2023-04-24T04:52:15;99141.80;;;17.64
70533;BMP180;58088;51.186;17.130;2023-04-24T04:54:43;99145.00;;;18.10
70533;BMP180;58088;51.186;17.130;2023-04-24T04:57:10;99144.80;;;18.50
70533;BMP180;58088;51.186;17.130;2023-04-24T04:59:38;99147.40;;;18.90
70533;BMP180;58088;51.186;17.130;2023-04-24T05:02:08;99147.20;;;19.20
70533;BMP180;58088;51.186;17.130;2023-04-24T05:04:36;99144.40;;;19.50
70533;BMP180;58088;51.186;17.130;2023-04-24T05:07:02;99149.80;;;19.60
70533;BMP180;58088;51.186;17.130;2023-04-24T05:09:30;99145.20;;;19.64
70533;BMP180;58088;51.186;17.130;2023-04-24T05:12:01;99149.00;;;19.90
70533;BMP180;58088;51.186;17.130;2023-04-24T05:14:29;99148.00;;;19.80
70533;BMP180;58088;51.186;17.130;2023-04-24T05:16:55;99153.00;;;19.80
70533;BMP180;58088;51.186;17.130;2023-04-24T05:19:22;99144.80;;;20.10
70533;BMP180;58088;51.186;17.130;2023-04-24T05:21:48;99144.80;;;20.30
70533;BMP180;58088;51.186;17.130;2023-04-24T05:24:14;99146.60;;;20.40
70533;BMP180;58088;51.186;17.130;2023-04-24T05:26:59;99145.80;;;20.26
70533;BMP180;58088;51.186;17.130;2023-04-24T05:29:31;99144.20;;;20.20
70533;BMP180;58088;51.186;17.130;2023-04-24T05:31:59;99149.60;;;20.00
70533;BMP180;58088;51.186;17.130;2023-04-24T05:34:27;99151.20;;;19.80
70533;BMP180;58088;51.186;17.130;2023-04-24T05:36:55;99148.80;;;19.60
70533;BMP180;58088;51.186;17.130;2023-04-24T05:39:21;99150.20;;;19.60
70533;BMP180;58088;51.186;17.130;2023-04-24T05:41:47;99155.60;;;19.50
70533;BMP180;58088;51.186;17.130;2023-04-24T05:44:14;99156.60;;;19.30
70533;BMP180;58088;51.186;17.130;2023-04-24T05:46:41;99156.20;;;19.20
70533;BMP180;58088;51.186;17.130;2023-04-24T05:49:09;99157.60;;;19.10
70533;BMP180;58088;51.186;17.130;2023-04-24T05:51:35;99151.20;;;19.00
70533;BMP180;58088;51.186;17.130;2023-04-24T05:54:02;99154.40;;;18.90
70533;BMP180;58088;51.186;17.130;2023-04-24T05:56:29;99150.00;;;18.70
70533;BMP180;58088;51.186;17.130;2023-04-24T05:58:56;99145.00;;;18.60
70533;BMP180;58088;51.186;17.130;2023-04-24T06:01:22;99155.80;;;18.50
70533;BMP180;58088;51.186;17.130;2023-04-24T06:03:53;99158.40;;;18.50
70533;BMP180;58088;51.186;17.130;2023-04-24T06:06:20;99157.00;;;18.60
70533;BMP180;58088;51.186;17.130;2023-04-24T06:08:46;99161.40;;;18.54
70533;BMP180;58088;51.186;17.130;2023-04-24T06:11:13;99163.00;;;18.60
70533;BMP180;58088;51.186;17.130;2023-04-24T06:13:39;99159.00;;;18.60
70533;BMP180;58088;51.186;17.130;2023-04-24T06:16:25;99162.00;;;18.60
70533;BMP180;58088;51.186;17.130;2023-04-24T06:18:57;99167.40;;;18.74
70533;BMP180;58088;51.186;17.130;2023-04-24T06:21:25;99166.40;;;18.90
70533;BMP180;58088;51.186;17.130;2023-04-24T06:23:52;99165.20;;;19.10
70533;BMP180;58088;51.186;17.130;2023-04-24T06:26:18;99168.20;;;19.30
70533;BMP180;58088;51.186;17.130;2023-04-24T06:28:46;99164.00;;;19.64
70533;BMP180;58088;51.186;17.130;2023-04-24T06:31:12;99167.00;;;19.80
70533;BMP180;58088;51.186;17.130;2023-04-24T06:33:39;99164.20;;;19.80
70533;BMP180;58088;51.186;17.130;2023-04-24T06:36:06;99175.20;;;19.88
70533;BMP180;58088;51.186;17.130;2023-04-24T06:38:32;99170.40;;;19.90
70533;BMP180;58088;51.186;17.130;2023-04-24T06:40:58;99173.20;;;19.90
70533;BMP180;58088;51.186;17.130;2023-04-24T06:43:24;99171.60;;;19.80
70533;BMP180;58088;51.186;17.130;2023-04-24T06:45:51;99171.20;;;19.80
70533;BMP180;58088;51.186;17.130;2023-04-24T06:48:17;99173.00;;;19.70
70533;BMP180;58088;51.186;17.130;2023-04-24T06:50:43;99175.60;;;19.70
70533;BMP180;58088;51.186;17.130;2023-04-24T06:53:09;99176.00;;;19.70
70533;BMP180;58088;51.186;17.130;2023-04-24T06:55:36;99173.80;;;19.60
70533;BMP180;58088;51.186;17.130;2023-04-24T06:58:03;99172.80;;;19.60
70533;BMP180;58088;51.186;17.130;2023-04-24T07:00:29;99167.20;;;19.60
70533;BMP180;58088;51.186;17.130;2023-04-24T07:02:55;99173.20;;;19.60
70533;BMP180;58088;51.186;17.130;2023-04-24T07:05:23;99169.80;;;19.60
70533;BMP180;58088;51.186;17.130;2023-04-24T07:07:49;99172.00;;;19.60
70533;BMP180;58088;51.186;17.130;2023-04-24T07:10:17;99170.20;;;19.60
70533;BMP180;58088;51.186;17.130;2023-04-24T07:12:44;99175.20;;;19.60
70533;BMP180;58088;51.186;17.130;2023-04-24T07:15:10;99172.20;;;19.60
70533;BMP180;58088;51.186;17.130;2023-04-24T07:17:36;99172.20;;;19.60
70533;BMP180;58088;51.186;17.130;2023-04-24T07:20:05;99171.00;;;19.60
70533;BMP180;58088;51.186;17.130;2023-04-24T07:22:33;99172.00;;;19.60
70533;BMP180;58088;51.186;17.130;2023-04-24T07:24:59;99171.60;;;19.68
70533;BMP180;58088;51.186;17.130;2023-04-24T07:27:26;99175.60;;;19.70
70533;BMP180;58088;51.186;17.130;2023-04-24T07:29:52;99176.20;;;19.70
70533;BMP180;58088;51.186;17.130;2023-04-24T07:32:18;99185.80;;;19.80
70533;BMP180;58088;51.186;17.130;2023-04-24T07:34:44;99177.60;;;19.90
70533;BMP180;58088;51.186;17.130;2023-04-24T07:37:11;99181.40;;;20.00
70533;BMP180;58088;51.186;17.130;2023-04-24T07:39:37;99179.40;;;20.10
70533;BMP180;58088;51.186;17.130;2023-04-24T07:42:03;99180.00;;;20.20
70533;BMP180;58088;51.186;17.130;2023-04-24T07:44:30;99177.80;;;20.30
70533;BMP180;58088;51.186;17.130;2023-04-24T07:46:56;99181.20;;;20.44
70533;BMP180;58088;51.186;17.130;2023-04-24T07:49:22;99182.40;;;20.50
70533;BMP180;58088;51.186;17.130;2023-04-24T07:51:49;99185.40;;;20.60
70533;BMP180;58088;51.186;17.130;2023-04-24T07:54:16;99185.40;;;20.70
70533;BMP180;58088;51.186;17.130;2023-04-24T07:56:43;99183.40;;;20.80
70533;BMP180;58088;51.186;17.130;2023-04-24T07:59:11;99187.60;;;20.90
70533;BMP180;58088;51.186;17.130;2023-04-24T08:01:37;99182.40;;;20.90
70533;BMP180;58088;51.186;17.130;2023-04-24T08:04:04;99184.20;;;20.94
70533;BMP180;58088;51.186;17.130;2023-04-24T08:06:30;99186.00;;;20.98
70533;BMP180;58088;51.186;17.130;2023-04-24T08:08:58;99191.60;;;20.94
70533;BMP180;58088;51.186;17.130;2023-04-24T08:11:24;99187.80;;;20.90
70533;BMP180;58088;51.186;17.130;2023-04-24T08:13:51;99192.40;;;20.80
70533;BMP180;58088;51.186;17.130;2023-04-24T08:16:18;99192.40;;;20.70
70533;BMP180;58088;51.186;17.130;2023-04-24T08:18:44;99186.60;;;20.60
70533;BMP180;58088;51.186;17.130;2023-04-24T08:21:10;99190.00;;;20.60
70533;BMP180;58088;51.186;17.130;2023-04-24T08:23:38;99193.20;;;20.62
70533;BMP180;58088;51.186;17.130;2023-04-24T08:26:05;99197.40;;;20.60
70533;BMP180;58088;51.186;17.130;2023-04-24T08:28:31;99205.20;;;20.60
70533;BMP180;58088;51.186;17.130;2023-04-24T08:30:57;99202.20;;;20.60
70533;BMP180;58088;51.186;17.130;2023-04-24T08:33:23;99203.80;;;20.60
70533;BMP180;58088;51.186;17.130;2023-04-24T08:35:50;99206.40;;;20.50
70533;BMP180;58088;51.186;17.130;2023-04-24T08:38:16;99204.60;;;20.50
70533;BMP180;58088;51.186;17.130;2023-04-24T08:40:43;99209.20;;;20.40
70533;BMP180;58088;51.186;17.130;2023-04-24T08:43:12;99201.20;;;20.40
70533;BMP180;58088;51.186;17.130;2023-04-24T08:45:40;99197.40;;;20.40
70533;BMP180;58088;51.186;17.130;2023-04-24T08:48:07;99189.60;;;20.30
70533;BMP180;58088;51.186;17.130;2023-04-24T08:50:34;99187.20;;;20.40
70533;BMP180;58088;51.186;17.130;2023-04-24T08:53:01;99193.80;;;20.50
70533;BMP180;58088;51.186;17.130;2023-04-24T08:55:30;99201.80;;;20.70
70533;BMP180;58088;51.186;17.130;2023-04-24T08:57:57;99195.40;;;20.90
70533;BMP180;58088;51.186;17.130;2023-04-24T09:00:24;99196.20;;;21.10
70533;BMP180;58088;51.186;17.130;2023-04-24T09:02:53;99196.80;;;21.30
70533;BMP180;58088;51.186;17.130;2023-04-24T09:05:21;99195.80;;;21.40
70533;BMP180;58088;51.186;17.130;2023-04-24T09:07:56;99200.00;;;21.54
70533;BMP180;58088;51.186;17.130;2023-04-24T09:10:25;99201.80;;;21.70
70533;BMP180;58088;51.186;17.130;2023-04-24T09:12:53;99202.40;;;21.72
70533;BMP180;58088;51.186;17.130;2023-04-24T09:15:20;99197.60;;;21.90
70533;BMP180;58088;51.186;17.130;2023-04-24T09:17:47;99197.00;;;22.00
70533;BMP180;58088;51.186;17.130;2023-04-24T09:20:13;99204.00;;;22.00
70533;BMP180;58088;51.186;17.130;2023-04-24T09:22:40;99199.00;;;22.10
70533;BMP180;58088;51.186;17.130;2023-04-24T09:25:09;99192.80;;;22.28
70533;BMP180;58088;51.186;17.130;2023-04-24T09:27:42;99190.20;;;22.40
70533;BMP180;58088;51.186;17.130;2023-04-24T09:30:10;99190.00;;;22.60
70533;BMP180;58088;51.186;17.130;2023-04-24T09:32:37;99191.00;;;22.64
70533;BMP180;58088;51.186;17.130;2023-04-24T09:35:14;99187.40;;;22.80
70533;BMP180;58088;51.186;17.130;2023-04-24T09:37:44;99183.40;;;22.90
70533;BMP180;58088;51.186;17.130;2023-04-24T09:40:18;99185.80;;;23.00
70533;BMP180;58088;51.186;17.130;2023-04-24T09:43:10;99184.20;;;23.00
70533;BMP180;58088;51.186;17.130;2023-04-24T09:45:39;99181.80;;;23.00
70533;BMP180;58088;51.186;17.130;2023-04-24T09:48:09;99182.80;;;23.10
70533;BMP180;58088;51.186;17.130;2023-04-24T09:50:35;99179.80;;;23.12
70533;BMP180;58088;51.186;17.130;2023-04-24T09:53:05;99175.00;;;23.10
70533;BMP180;58088;51.186;17.130;2023-04-24T09:55:31;99181.60;;;23.00
70533;BMP180;58088;51.186;17.130;2023-04-24T09:58:00;99177.40;;;23.00
70533;BMP180;58088;51.186;17.130;2023-04-24T10:00:29;99171.00;;;23.00
70533;BMP180;58088;51.186;17.130;2023-04-24T10:05:37;99167.40;;;23.00
70533;BMP180;58088;51.186;17.130;2023-04-24T10:08:09;99161.40;;;22.90
70533;BMP180;58088;51.186;17.130;2023-04-24T10:10:46;99157.00;;;22.90
70533;BMP180;58088;51.186;17.130;2023-04-24T10:13:14;99156.80;;;22.90
70533;BMP180;58088;51.186;17.130;2023-04-24T10:15:42;99157.80;;;22.80
70533;BMP180;58088;51.186;17.130;2023-04-24T10:18:10;99159.20;;;22.62
70533;BMP180;58088;51.186;17.130;2023-04-24T10:20:39;99158.60;;;22.52
70533;BMP180;58088;51.186;17.130;2023-04-24T10:23:06;99157.20;;;22.50
70533;BMP180;58088;51.186;17.130;2023-04-24T10:25:35;99156.00;;;22.50
70533;BMP180;58088;51.186;17.130;2023-04-24T10:28:03;99161.80;;;22.50
70533;BMP180;58088;51.186;17.130;2023-04-24T10:30:35;99168.60;;;22.30
70533;BMP180;58088;51.186;17.130;2023-04-24T10:33:06;99168.40;;;22.20
70533;BMP180;58088;51.186;17.130;2023-04-24T10:35:44;99169.40;;;22.10
70533;BMP180;58088;51.186;17.130;2023-04-24T10:38:14;99166.20;;;22.00
70533;BMP180;58088;51.186;17.130;2023-04-24T10:40:42;99162.60;;;22.00
70533;BMP180;58088;51.186;17.130;2023-04-24T10:43:10;99165.80;;;21.90
70533;BMP180;58088;51.186;17.130;2023-04-24T10:45:38;99158.00;;;21.90
70533;BMP180;58088;51.186;17.130;2023-04-24T10:48:07;99163.80;;;22.00
70533;BMP180;58088;51.186;17.130;2023-04-24T10:50:51;99165.60;;;22.10
70533;BMP180;58088;51.186;17.130;2023-04-24T10:53:24;99167.20;;;22.36
70533;BMP180;58088;51.186;17.130;2023-04-24T10:56:09;99169.40;;;22.50
70533;BMP180;58088;51.186;17.130;2023-04-24T10:58:42;99166.00;;;22.44
70533;BMP180;58088;51.186;17.130;2023-04-24T11:01:52;99160.60;;;22.30
70533;BMP180;58088;51.186;17.130;2023-04-24T11:04:32;99163.60;;;22.10
70533;BMP180;58088;51.186;17.130;2023-04-24T11:06:59;99170.80;;;22.00
70533;BMP180;58088;51.186;17.130;2023-04-24T11:09:30;99172.40;;;21.92
70533;BMP180;58088;51.186;17.130;2023-04-24T11:12:10;99172.00;;;22.00
70533;BMP180;58088;51.186;17.130;2023-04-24T11:17:33;99173.00;;;22.00
70533;BMP180;58088;51.186;17.130;2023-04-24T11:20:03;99168.80;;;22.00
70533;BMP180;58088;51.186;17.130;2023-04-24T11:22:34;99169.60;;;21.90
70533;BMP180;58088;51.186;17.130;2023-04-24T11:25:03;99170.60;;;21.90
70533;BMP180;58088;51.186;17.130;2023-04-24T11:27:42;99175.80;;;21.80
70533;BMP180;58088;51.186;17.130;2023-04-24T11:30:10;99175.20;;;21.70
70533;BMP180;58088;51.186;17.130;2023-04-24T11:32:41;99182.20;;;21.70
70533;BMP180;58088;51.186;17.130;2023-04-24T11:35:21;99171.00;;;21.60
70533;BMP180;58088;51.186;17.130;2023-04-24T11:37:53;99172.20;;;21.60
70533;BMP180;58088;51.186;17.130;2023-04-24T11:40:23;99175.40;;;21.60
70533;BMP180;58088;51.186;17.130;2023-04-24T11:42:53;99177.80;;;21.60
70533;BMP180;58088;51.186;17.130;2023-04-24T11:45:27;99180.80;;;21.70
70533;BMP180;58088;51.186;17.130;2023-04-24T11:47:54;99177.20;;;21.78
70533;BMP180;58088;51.186;17.130;2023-04-24T11:50:24;99174.20;;;21.90
70533;BMP180;58088;51.186;17.130;2023-04-24T11:52:57;99173.80;;;21.90
70533;BMP180;58088;51.186;17.130;2023-04-24T11:55:27;99170.00;;;22.00
70533;BMP180;58088;51.186;17.130;2023-04-24T11:58:00;99170.60;;;22.10
70533;BMP180;58088;51.186;17.130;2023-04-24T12:00:31;99171.60;;;22.10
70533;BMP180;58088;51.186;17.130;2023-04-24T12:03:11;99168.00;;;22.14
70533;BMP180;58088;51.186;17.130;2023-04-24T12:05:39;99162.40;;;22.00
70533;BMP180;58088;51.186;17.130;2023-04-24T12:08:06;99163.20;;;22.00
70533;BMP180;58088;51.186;17.130;2023-04-24T12:10:35;99165.20;;;21.90
70533;BMP180;58088;51.186;17.130;2023-04-24T12:13:02;99163.20;;;21.70
70533;BMP180;58088;51.186;17.130;2023-04-24T12:15:29;99163.40;;;21.60
70533;BMP180;58088;51.186;17.130;2023-04-24T12:17:56;99155.80;;;21.50
70533;BMP180;58088;51.186;17.130;2023-04-24T12:20:31;99156.00;;;21.50
70533;BMP180;58088;51.186;17.130;2023-04-24T12:23:00;99149.80;;;21.50
70533;BMP180;58088;51.186;17.130;2023-04-24T12:25:38;99154.00;;;21.36
70533;BMP180;58088;51.186;17.130;2023-04-24T12:30:34;99158.00;;;21.20
70533;BMP180;58088;51.186;17.130;2023-04-24T12:33:02;99155.20;;;21.12
70533;BMP180;58088;51.186;17.130;2023-04-24T12:35:31;99152.00;;;21.10
70533;BMP180;58088;51.186;17.130;2023-04-24T12:38:10;99156.40;;;21.00
70533;BMP180;58088;51.186;17.130;2023-04-24T12:40:39;99150.80;;;21.00
70533;BMP180;58088;51.186;17.130;2023-04-24T12:43:19;99155.00;;;21.00
70533;BMP180;58088;51.186;17.130;2023-04-24T12:45:48;99153.80;;;21.00
70533;BMP180;58088;51.186;17.130;2023-04-24T12:48:14;99152.60;;;20.90
70533;BMP180;58088;51.186;17.130;2023-04-24T12:50:42;99151.40;;;20.80
70533;BMP180;58088;51.186;17.130;2023-04-24T12:53:09;99151.20;;;20.70
70533;BMP180;58088;51.186;17.130;2023-04-24T12:55:37;99152.40;;;20.60
70533;BMP180;58088;51.186;17.130;2023-04-24T12:58:03;99151.80;;;20.60
70533;BMP180;58088;51.186;17.130;2023-04-24T13:00:29;99145.80;;;20.60
70533;BMP180;58088;51.186;17.130;2023-04-24T13:02:55;99141.80;;;20.60
70533;BMP180;58088;51.186;17.130;2023-04-24T13:05:21;99140.80;;;20.60
70533;BMP180;58088;51.186;17.130;2023-04-24T13:07:47;99139.00;;;20.60
70533;BMP180;58088;51.186;17.130;2023-04-24T13:10:14;99136.60;;;20.60
70533;BMP180;58088;51.186;17.130;2023-04-24T13:12:40;99138.00;;;20.50
70533;BMP180;58088;51.186;17.130;2023-04-24T13:15:07;99137.80;;;20.50
70533;BMP180;58088;51.186;17.130;2023-04-24T13:17:33;99136.60;;;20.38
70533;BMP180;58088;51.186;17.130;2023-04-24T13:19:59;99136.60;;;20.02
70533;BMP180;58088;51.186;17.130;2023-04-24T13:22:25;99137.80;;;19.66
70533;BMP180;58088;51.186;17.130;2023-04-24T13:24:52;99137.80;;;19.26
70533;BMP180;58088;51.186;17.130;2023-04-24T13:27:18;99137.60;;;19.00
70533;BMP180;58088;51.186;17.130;2023-04-24T13:29:45;99138.00;;;18.80
70533;BMP180;58088;51.186;17.130;2023-04-24T13:32:11;99137.80;;;18.70
70533;BMP180;58088;51.186;17.130;2023-04-24T13:34:37;99131.20;;;18.60
70533;BMP180;58088;51.186;17.130;2023-04-24T13:37:05;99128.60;;;18.50
70533;BMP180;58088;51.186;17.130;2023-04-24T13:39:32;99128.60;;;18.40
70533;BMP180;58088;51.186;17.130;2023-04-24T13:41:58;99128.20;;;18.16
70533;BMP180;58088;51.186;17.130;2023-04-24T13:44:25;99128.40;;;18.00
70533;BMP180;58088;51.186;17.130;2023-04-24T13:46:55;99126.00;;;17.80
70533;BMP180;58088;51.186;17.130;2023-04-24T13:49:24;99126.20;;;17.70
70533;BMP180;58088;51.186;17.130;2023-04-24T13:51:54;99124.40;;;17.60
70533;BMP180;58088;51.186;17.130;2023-04-24T13:54:21;99126.20;;;17.50
70533;BMP180;58088;51.186;17.130;2023-04-24T13:56:50;99122.80;;;17.42
70533;BMP180;58088;51.186;17.130;2023-04-24T13:59:16;99122.80;;;17.40
70533;BMP180;58088;51.186;17.130;2023-04-24T14:01:43;99125.80;;;17.30
70533;BMP180;58088;51.186;17.130;2023-04-24T14:04:10;99126.20;;;17.30
70533;BMP180;58088;51.186;17.130;2023-04-24T14:06:37;99126.80;;;17.28
70533;BMP180;58088;51.186;17.130;2023-04-24T14:09:03;99125.60;;;17.28
70533;BMP180;58088;51.186;17.130;2023-04-24T14:11:30;99129.40;;;17.20